createdAt,value
2022-11-10T00:00:48.251Z,5.23
2022-11-10T00:03:34.994Z,5.47
2022-11-10T00:06:20.465Z,7.07
2022-11-10T00:09:06.758Z,6.67
2022-11-10T00:11:52.607Z,5.70
2022-11-10T00:14:57.109Z,6.93
2022-11-10T00:17:43.106Z,6.20
2022-11-10T00:20:29.184Z,5.83
2022-11-10T00:23:15.255Z,7.00
2022-11-10T00:26:01.207Z,6.30
2022-11-10T00:28:47.018Z,5.90
2022-11-10T00:31:33.107Z,6.70
2022-11-10T00:34:19.076Z,6.43
2022-11-10T00:37:05.041Z,6.70
2022-11-10T00:39:51.079Z,6.63
2022-11-10T00:42:37.266Z,6.80
2022-11-10T00:45:23.068Z,6.47
2022-11-10T00:48:08.684Z,8.10
2022-11-10T00:50:54.678Z,6.97
2022-11-10T00:53:40.314Z,6.57
2022-11-10T00:56:26.368Z,6.90
2022-11-10T00:59:12.452Z,6.80
2022-11-10T01:01:58.301Z,7.60
2022-11-10T01:04:44.134Z,6.80
2022-11-10T01:07:30.052Z,6.73
2022-11-10T01:10:16.072Z,6.90
2022-11-10T01:13:04.521Z,7.07
2022-11-10T01:15:50.302Z,7.33
2022-11-10T01:18:36.403Z,7.60
2022-11-10T01:21:23.081Z,7.47
2022-11-10T01:24:08.910Z,7.20
2022-11-10T01:26:54.724Z,8.30
2022-11-10T01:29:40.262Z,7.70
2022-11-10T01:32:25.575Z,8.47
2022-11-10T01:35:11.215Z,8.33
2022-11-10T01:37:57.438Z,10.30
2022-11-10T01:40:43.916Z,8.30
2022-11-10T01:43:30.503Z,9.13
2022-11-10T01:46:16.293Z,7.97
2022-11-10T01:49:04.258Z,10.50
2022-11-10T01:52:19.151Z,9.30
2022-11-10T01:55:04.988Z,9.17
2022-11-10T01:57:51.668Z,9.10
2022-11-10T02:00:37.542Z,8.80
2022-11-10T02:03:32.413Z,10.33
2022-11-10T02:06:20.929Z,10.30
2022-11-10T02:09:07.516Z,10.83
2022-11-10T02:11:55.074Z,10.53
2022-11-10T02:14:41.431Z,10.67
2022-11-10T02:17:27.177Z,10.60
2022-11-10T02:20:15.869Z,10.80
2022-11-10T02:23:36.914Z,10.37
2022-11-10T02:26:25.738Z,11.27
2022-11-10T02:29:12.198Z,12.73
2022-11-10T02:31:58.250Z,11.97
2022-11-10T02:34:44.058Z,10.37
2022-11-10T02:37:29.640Z,11.07
2022-11-10T02:40:15.819Z,10.40
2022-11-10T02:43:02.134Z,10.83
2022-11-10T02:45:47.744Z,11.40
2022-11-10T02:48:33.978Z,11.00
2022-11-10T02:51:19.379Z,12.10
2022-11-10T02:54:06.282Z,11.53
2022-11-10T02:56:52.076Z,11.67
2022-11-10T02:59:38.133Z,12.57
2022-11-10T03:02:28.446Z,11.90
2022-11-10T03:07:46.755Z,15.10
2022-11-10T03:10:32.765Z,13.37
2022-11-10T03:13:18.641Z,13.37
2022-11-10T03:16:04.880Z,13.03
2022-11-10T03:18:50.201Z,12.17
2022-11-10T03:21:35.773Z,14.13
2022-11-10T03:24:21.934Z,14.03
2022-11-10T03:27:07.913Z,14.10
2022-11-10T03:29:53.750Z,13.97
2022-11-10T03:32:39.228Z,13.43
2022-11-10T03:35:25.467Z,13.80
2022-11-10T03:38:11.552Z,14.37
2022-11-10T03:41:18.270Z,14.60
2022-11-10T03:44:03.042Z,14.60
2022-11-10T03:46:51.561Z,14.10
2022-11-10T03:49:38.016Z,14.20
2022-11-10T03:52:23.733Z,13.40
2022-11-10T03:55:12.454Z,13.63
2022-11-10T03:58:02.902Z,12.50
2022-11-10T04:00:48.886Z,13.80
2022-11-10T04:03:34.877Z,13.83
2022-11-10T04:06:39.794Z,12.40
2022-11-10T04:09:25.786Z,14.07
2022-11-10T04:12:31.907Z,15.27
2022-11-10T04:15:36.765Z,14.43
2022-11-10T04:18:25.961Z,15.53
2022-11-10T04:21:12.271Z,15.27
2022-11-10T04:23:58.134Z,13.70
2022-11-10T04:26:45.099Z,15.40
2022-11-10T04:29:31.135Z,14.60
2022-11-10T04:32:16.786Z,13.37
2022-11-10T04:35:02.881Z,14.40
2022-11-10T04:37:49.180Z,14.87
2022-11-10T04:40:34.858Z,14.77
2022-11-10T04:43:20.866Z,14.30
2022-11-10T04:46:08.645Z,17.63
2022-11-10T04:48:55.377Z,14.57
2022-11-10T04:51:40.926Z,14.50
2022-11-10T04:54:27.340Z,15.93
2022-11-10T04:57:13.426Z,13.70
2022-11-10T04:59:59.510Z,14.37
2022-11-10T05:02:45.040Z,13.30
2022-11-10T05:05:31.699Z,14.13
2022-11-10T05:08:17.456Z,15.23
2022-11-10T05:11:03.282Z,15.50
2022-11-10T05:13:49.499Z,16.53
2022-11-10T05:16:37.578Z,17.02
2022-11-10T05:19:23.310Z,15.23
2022-11-10T05:22:09.188Z,14.90
2022-11-10T05:24:54.967Z,16.20
2022-11-10T05:27:40.926Z,17.17
2022-11-10T05:30:26.843Z,16.27
2022-11-10T05:33:12.364Z,17.80
2022-11-10T05:35:58.444Z,15.97
2022-11-10T05:38:44.295Z,15.43
2022-11-10T05:41:29.970Z,15.40
2022-11-10T05:44:15.868Z,15.57
2022-11-10T05:47:01.529Z,16.23
2022-11-10T05:49:47.817Z,13.57
2022-11-10T05:52:33.661Z,17.87
2022-11-10T05:55:24.568Z,16.17
2022-11-10T05:58:10.638Z,16.30
2022-11-10T06:00:56.402Z,15.83
2022-11-10T06:03:42.110Z,14.67
2022-11-10T06:06:28.189Z,15.87
2022-11-10T06:09:14.252Z,16.30
2022-11-10T06:12:00.022Z,14.27
2022-11-10T06:14:45.463Z,13.43
2022-11-10T06:17:31.521Z,14.80
2022-11-10T06:20:17.624Z,15.30
2022-11-10T06:23:09.572Z,15.63
2022-11-10T06:25:55.351Z,13.43
2022-11-10T06:28:41.142Z,15.67
2022-11-10T06:31:26.963Z,16.83
2022-11-10T06:34:13.098Z,16.93
2022-11-10T06:36:58.558Z,17.63
2022-11-10T06:39:44.036Z,17.50
2022-11-10T06:42:29.947Z,14.60
2022-11-10T06:45:15.689Z,17.23
2022-11-10T06:48:02.490Z,16.53
2022-11-10T06:50:47.964Z,17.03
2022-11-10T06:53:34.066Z,18.07
2022-11-10T06:56:20.201Z,16.73
2022-11-10T06:59:06.094Z,17.40
2022-11-10T07:01:52.035Z,16.23
2022-11-10T07:04:38.275Z,15.20
2022-11-10T07:07:24.442Z,14.27
2022-11-10T07:10:10.381Z,15.87
2022-11-10T07:12:57.541Z,16.13
2022-11-10T07:15:44.255Z,15.87
2022-11-10T07:18:30.664Z,13.67
2022-11-10T07:21:16.670Z,14.03
2022-11-10T07:24:02.463Z,11.67
2022-11-10T07:26:48.729Z,11.83
2022-11-10T07:29:34.581Z,11.43
2022-11-10T07:32:20.828Z,12.90
2022-11-10T07:35:06.741Z,9.77
2022-11-10T07:37:52.458Z,9.70
2022-11-10T07:40:39.116Z,9.30
2022-11-10T07:43:25.655Z,10.73
2022-11-10T07:46:11.803Z,11.27
2022-11-10T07:48:57.716Z,10.47
2022-11-10T07:51:43.899Z,10.00
2022-11-10T07:54:29.886Z,12.17
2022-11-10T07:57:16.318Z,13.80
2022-11-10T08:00:02.501Z,11.23
2022-11-10T08:02:48.177Z,11.57
2022-11-10T08:05:34.486Z,11.67
2022-11-10T08:08:20.730Z,10.53
2022-11-10T08:11:06.684Z,12.67
2022-11-10T08:13:52.560Z,13.27
2022-11-10T08:16:38.456Z,13.10
2022-11-10T08:19:24.318Z,13.00
2022-11-10T08:22:10.094Z,12.73
2022-11-10T08:24:55.593Z,11.43
2022-11-10T08:27:41.895Z,12.13
2022-11-10T08:30:28.109Z,11.93
2022-11-10T08:33:16.017Z,11.27
2022-11-10T08:36:02.868Z,10.73
2022-11-10T08:38:48.944Z,11.10
2022-11-10T08:41:35.225Z,13.07
2022-11-10T08:44:21.495Z,12.03
2022-11-10T08:47:07.560Z,13.00
2022-11-10T08:49:53.798Z,13.60
2022-11-10T08:52:39.719Z,14.33
2022-11-10T08:55:25.431Z,11.80
2022-11-10T08:58:16.243Z,12.37
2022-11-10T09:01:02.084Z,12.80
2022-11-10T09:03:47.946Z,12.77
2022-11-10T09:06:33.861Z,12.27
2022-11-10T09:09:19.701Z,11.57
2022-11-10T09:12:05.503Z,11.10
2022-11-10T09:14:51.376Z,11.83
2022-11-10T09:17:37.861Z,10.37
2022-11-10T09:20:23.965Z,9.93
2022-11-10T09:23:13.329Z,9.20
2022-11-10T09:25:58.978Z,9.63
2022-11-10T09:28:44.935Z,8.77
2022-11-10T09:31:30.982Z,9.03
2022-11-10T09:34:16.810Z,6.97
2022-11-10T09:37:02.657Z,6.57
2022-11-10T09:39:48.608Z,7.00
2022-11-10T09:42:38.840Z,7.27
2022-11-10T09:45:35.081Z,7.10
2022-11-10T09:48:29.789Z,5.93
2022-11-10T09:51:25.778Z,5.57
2022-11-10T09:54:28.681Z,5.50
2022-11-10T09:57:17.410Z,6.00
2022-11-10T10:00:04.875Z,6.03
2022-11-10T10:02:59.367Z,5.20
2022-11-10T10:05:46.502Z,5.00
2022-11-10T10:09:19.102Z,6.10
2022-11-10T10:12:52.090Z,6.30
2022-11-10T10:16:05.101Z,4.90
2022-11-10T10:19:21.843Z,5.40
2022-11-10T10:22:24.809Z,5.50
2022-11-10T10:25:20.605Z,6.40
2022-11-10T10:28:24.517Z,5.73
2022-11-10T10:31:40.895Z,4.90
2022-11-10T10:34:30.656Z,4.50
2022-11-10T10:37:41.640Z,5.03
2022-11-10T10:40:27.706Z,5.90
2022-11-10T10:43:13.731Z,3.97
2022-11-10T10:46:11.762Z,4.90
2022-11-10T10:49:27.472Z,6.27
2022-11-10T10:52:12.040Z,3.07
2022-11-10T10:55:05.574Z,3.90
2022-11-10T10:57:52.937Z,3.53
2022-11-10T11:00:47.523Z,3.27
2022-11-10T11:03:43.591Z,2.97
2022-11-10T11:06:31.639Z,3.47
2022-11-10T11:09:26.372Z,3.50
2022-11-10T11:12:27.199Z,3.50
2022-11-10T11:15:19.780Z,3.33
2022-11-10T11:18:15.449Z,3.27
2022-11-10T11:21:18.673Z,3.60
2022-11-10T11:24:24.422Z,4.30
2022-11-10T11:27:10.505Z,4.17
2022-11-10T11:30:12.130Z,2.90
2022-11-10T11:33:16.034Z,3.00
2022-11-10T11:36:07.269Z,3.33
2022-11-10T11:39:06.666Z,4.53
2022-11-10T11:41:59.236Z,4.47
2022-11-10T11:45:15.610Z,4.03
2022-11-10T11:48:23.358Z,3.07
2022-11-10T11:51:42.500Z,2.50
2022-11-10T11:54:30.605Z,2.83
2022-11-10T11:57:34.496Z,2.90
2022-11-10T12:00:24.703Z,3.07
2022-11-10T12:03:29.889Z,4.03
2022-11-10T12:06:30.381Z,4.97
2022-11-10T12:09:17.394Z,2.73
2022-11-10T12:12:48.255Z,3.63
2022-11-10T12:15:34.579Z,3.53
2022-11-10T12:18:21.064Z,2.80
2022-11-10T12:21:07.203Z,2.97
2022-11-10T12:24:11.060Z,3.10
2022-11-10T12:27:00.998Z,3.97
2022-11-10T12:30:01.609Z,3.07
2022-11-10T12:33:07.471Z,3.50
2022-11-10T12:35:55.240Z,3.53
2022-11-10T12:38:41.194Z,2.83
2022-11-10T12:41:34.050Z,3.37
2022-11-10T12:44:41.200Z,3.50
2022-11-10T12:47:38.032Z,3.60
2022-11-10T12:50:31.820Z,4.40
2022-11-10T12:53:32.107Z,3.60
2022-11-10T12:56:32.429Z,3.83
2022-11-10T12:59:26.313Z,3.60
2022-11-10T13:02:35.080Z,3.10
2022-11-10T13:05:54.884Z,4.33
2022-11-10T13:08:43.339Z,2.93
2022-11-10T13:11:34.620Z,3.20
2022-11-10T13:14:34.407Z,3.00
2022-11-10T13:17:43.161Z,3.67
2022-11-10T13:20:51.030Z,4.77
2022-11-10T13:23:37.779Z,3.47
2022-11-10T13:26:42.403Z,3.10
2022-11-10T13:29:43.398Z,2.83
2022-11-10T13:32:33.819Z,3.43
2022-11-10T13:35:28.316Z,2.90
2022-11-10T13:38:38.854Z,3.47
2022-11-10T13:41:26.370Z,3.07
2022-11-10T13:44:28.452Z,2.80
2022-11-10T13:47:14.253Z,5.57
2022-11-10T13:50:27.967Z,3.27
2022-11-10T13:53:23.615Z,3.10
2022-11-10T13:56:21.101Z,2.93
2022-11-10T13:59:27.618Z,1.83
2022-11-10T14:02:38.948Z,3.30
2022-11-10T14:05:30.663Z,3.30
2022-11-10T14:08:22.716Z,2.63
2022-11-10T14:11:21.066Z,3.10
2022-11-10T14:14:29.096Z,2.33
2022-11-10T14:17:48.052Z,2.43
2022-11-10T14:20:45.529Z,2.70
2022-11-10T14:23:49.450Z,2.27
2022-11-10T14:26:50.765Z,3.03
2022-11-10T14:29:40.862Z,2.80
2022-11-10T14:32:27.221Z,3.10
2022-11-10T14:35:27.920Z,2.67
2022-11-10T14:38:21.175Z,3.17
2022-11-10T14:41:21.808Z,2.83
2022-11-10T14:44:13.240Z,2.63
2022-11-10T14:47:24.197Z,2.83
2022-11-10T14:50:17.341Z,2.30
2022-11-10T14:53:12.250Z,2.87
2022-11-10T14:55:58.494Z,3.60
2022-11-10T14:58:44.961Z,3.83
2022-11-10T15:01:35.192Z,3.23
2022-11-10T15:04:28.598Z,2.87
2022-11-10T15:07:14.641Z,3.63
2022-11-10T15:10:08.432Z,2.73
2022-11-10T15:13:40.439Z,3.80
2022-11-10T15:16:36.675Z,2.80
2022-11-10T15:19:32.210Z,3.40
2022-11-10T15:22:36.812Z,3.97
2022-11-10T15:25:23.927Z,2.23
2022-11-10T15:28:15.888Z,3.33
2022-11-10T15:31:01.624Z,2.53
2022-11-10T15:33:49.081Z,3.07
2022-11-10T15:36:40.748Z,3.07
2022-11-10T15:39:27.770Z,2.70
2022-11-10T15:42:33.161Z,4.03
2022-11-10T15:45:19.051Z,3.17
2022-11-10T15:48:07.844Z,2.83
2022-11-10T15:50:55.439Z,2.30
2022-11-10T15:53:51.926Z,2.97
2022-11-10T15:56:37.733Z,3.77
2022-11-10T15:59:23.615Z,2.87
2022-11-10T16:02:20.296Z,3.40
2022-11-10T16:05:12.670Z,3.43
2022-11-10T16:07:58.022Z,3.20
2022-11-10T16:10:46.731Z,5.03
2022-11-10T16:13:32.832Z,4.07
2022-11-10T16:16:19.254Z,4.47
2022-11-10T16:19:04.918Z,4.00
2022-11-10T16:21:50.805Z,3.23
2022-11-10T16:24:36.601Z,4.40
2022-11-10T16:27:22.477Z,3.93
2022-11-10T16:30:14.400Z,3.87
2022-11-10T16:33:00.246Z,4.87
2022-11-10T16:35:52.834Z,3.47
2022-11-10T16:38:38.755Z,3.50
2022-11-10T16:41:24.650Z,3.67
2022-11-10T16:44:13.104Z,3.60
2022-11-10T16:46:59.166Z,3.30
2022-11-10T16:49:45.745Z,4.00
2022-11-10T16:52:31.688Z,3.63
2022-11-10T16:55:17.840Z,4.20
2022-11-10T16:58:03.832Z,2.70
2022-11-10T17:00:50.103Z,6.43
2022-11-10T17:03:42.933Z,4.30
2022-11-10T17:06:29.697Z,5.37
2022-11-10T17:09:22.575Z,5.47
2022-11-10T17:12:16.886Z,3.30
2022-11-10T17:15:02.674Z,2.70
2022-11-10T17:17:51.460Z,3.90
2022-11-10T17:20:42.384Z,3.33
2022-11-10T17:23:28.970Z,3.57
2022-11-10T17:26:20.264Z,4.30
2022-11-10T17:29:06.360Z,4.23
2022-11-10T17:31:52.913Z,3.93
2022-11-10T17:34:42.241Z,4.23
2022-11-10T17:37:28.157Z,47.10
2022-11-10T17:40:21.050Z,3.60
2022-11-10T17:43:06.810Z,5.87
2022-11-10T17:45:52.896Z,5.67
2022-11-10T17:48:39.708Z,3.40
2022-11-10T17:51:25.759Z,23.87
2022-11-10T17:54:15.454Z,5.30
2022-11-10T17:57:04.465Z,6.03
2022-11-10T17:59:49.917Z,15.73
2022-11-10T18:02:36.039Z,3.83
2022-11-10T18:05:22.087Z,3.73
2022-11-10T18:08:07.840Z,3.40
2022-11-10T18:10:53.766Z,3.03
2022-11-10T18:13:40.575Z,4.20
2022-11-10T18:16:27.189Z,2.73
2022-11-10T18:19:13.113Z,3.00
2022-11-10T18:21:58.778Z,3.07
2022-11-10T18:24:44.503Z,3.40
2022-11-10T18:27:31.287Z,3.03
2022-11-10T18:30:18.233Z,3.30
2022-11-10T18:33:05.697Z,4.10
2022-11-10T18:35:52.373Z,3.43
2022-11-10T18:38:38.504Z,2.83
2022-11-10T18:41:43.150Z,2.70
2022-11-10T18:44:29.687Z,3.17
2022-11-10T18:47:15.641Z,3.87
2022-11-10T18:50:01.572Z,3.30
2022-11-10T18:52:47.393Z,2.87
2022-11-10T18:55:33.675Z,2.93
2022-11-10T18:58:19.854Z,3.07
2022-11-10T19:01:07.494Z,3.10
2022-11-10T19:03:54.203Z,3.17
2022-11-10T19:06:40.740Z,3.30
2022-11-10T19:09:26.637Z,5.73
2022-11-10T19:12:12.722Z,4.57
2022-11-10T19:14:58.879Z,3.70
2022-11-10T19:17:44.381Z,2.93
2022-11-10T19:20:30.375Z,2.97
2022-11-10T19:23:16.275Z,2.87
2022-11-10T19:26:04.233Z,3.87
2022-11-10T19:28:50.176Z,4.17
2022-11-10T19:31:36.164Z,3.70
2022-11-10T19:34:22.103Z,3.73
2022-11-10T19:37:07.504Z,4.13
2022-11-10T19:39:53.840Z,4.43
2022-11-10T19:42:39.418Z,3.07
2022-11-10T19:45:25.396Z,3.00
2022-11-10T19:48:11.131Z,3.33
2022-11-10T19:50:57.306Z,3.40
2022-11-10T19:53:45.233Z,3.50
2022-11-10T19:56:33.871Z,3.97
2022-11-10T19:59:21.078Z,2.97
2022-11-10T20:02:07.912Z,3.03
2022-11-10T20:05:12.391Z,3.00
2022-11-10T20:08:13.661Z,2.97
2022-11-10T20:11:01.827Z,2.53
2022-11-10T20:13:54.961Z,3.67
2022-11-10T20:16:41.582Z,3.33
2022-11-10T20:19:27.432Z,4.07
2022-11-10T20:22:13.631Z,3.95
2022-11-10T20:25:05.443Z,3.27
2022-11-10T20:27:52.865Z,3.67
2022-11-10T20:30:43.100Z,5.73
2022-11-10T20:33:30.801Z,2.93
2022-11-10T20:36:23.277Z,2.90
2022-11-10T20:39:09.500Z,3.00
2022-11-10T20:41:55.850Z,3.13
2022-11-10T20:44:41.612Z,3.20
2022-11-10T20:47:28.749Z,3.20
2022-11-10T20:50:17.165Z,2.90
2022-11-10T20:53:05.740Z,3.30
2022-11-10T20:55:58.037Z,2.80
2022-11-10T20:58:45.147Z,3.60
2022-11-10T21:01:32.637Z,2.73
2022-11-10T21:04:18.987Z,3.17
2022-11-10T21:07:05.210Z,2.97
2022-11-10T21:09:51.005Z,2.83
2022-11-10T21:12:52.004Z,2.73
2022-11-10T21:15:39.704Z,3.10
2022-11-10T21:18:28.218Z,3.87
2022-11-10T21:21:22.601Z,3.27
2022-11-10T21:24:09.285Z,3.73
2022-11-10T21:26:55.519Z,3.20
2022-11-10T21:29:42.335Z,2.80
2022-11-10T21:32:28.509Z,3.23
2022-11-10T21:35:14.324Z,3.83
2022-11-10T21:37:59.910Z,3.30
2022-11-10T21:40:46.908Z,2.60
2022-11-10T21:43:33.096Z,3.27
2022-11-10T21:46:19.308Z,4.97
2022-11-10T21:49:08.204Z,3.33
2022-11-10T21:51:55.521Z,3.23
2022-11-10T21:54:41.886Z,3.23
2022-11-10T21:57:27.659Z,3.73
2022-11-10T22:00:14.224Z,3.63
2022-11-10T22:03:01.607Z,3.50
2022-11-10T22:05:47.733Z,3.27
2022-11-10T22:08:34.075Z,3.17
2022-11-10T22:11:39.460Z,3.37
2022-11-10T22:14:43.887Z,2.90
2022-11-10T22:17:48.727Z,3.27
2022-11-10T22:20:39.436Z,2.77
2022-11-10T22:23:43.736Z,3.23
2022-11-10T22:26:29.161Z,3.50
2022-11-10T22:29:15.034Z,3.20
2022-11-10T22:32:01.165Z,3.90
2022-11-10T22:34:47.214Z,3.70
2022-11-10T22:37:33.074Z,3.10
2022-11-10T22:40:38.379Z,2.23
2022-11-10T22:43:42.608Z,3.30
2022-11-10T22:46:28.642Z,2.47
2022-11-10T22:49:16.019Z,3.37
2022-11-10T22:52:02.164Z,4.13
2022-11-10T22:54:47.484Z,2.97
2022-11-10T22:57:33.338Z,3.03
2022-11-10T23:00:19.448Z,3.40
2022-11-10T23:03:05.539Z,3.10
2022-11-10T23:05:56.252Z,3.50
2022-11-10T23:08:42.836Z,3.23
2022-11-10T23:11:30.995Z,2.77
2022-11-10T23:14:16.587Z,3.17
2022-11-10T23:17:02.560Z,2.50
2022-11-10T23:19:48.267Z,11.60
2022-11-10T23:22:34.297Z,20.53
2022-11-10T23:25:20.140Z,11.13
2022-11-10T23:28:06.226Z,6.27
2022-11-10T23:30:52.428Z,12.27
2022-11-10T23:33:39.594Z,5.90
2022-11-10T23:36:27.501Z,4.00
2022-11-10T23:39:14.053Z,4.10
2022-11-10T23:42:00.092Z,2.80
2022-11-10T23:44:46.057Z,2.87
2022-11-10T23:47:32.042Z,3.97
2022-11-10T23:50:17.912Z,4.07
2022-11-10T23:53:03.383Z,3.20
2022-11-10T23:55:57.659Z,3.00
2022-11-10T23:58:43.400Z,3.20
